Station Historical Data
Daily Summary for November 26, 2017 Units:  Metric    English   Both
« Previous Day
Next Day »
Daily Weekly Monthly Yearly Custom
  High: Low: Average:
Temperature: 6.3 °C 0.6 °C 2.5 °C
Dew Point: 1.7 °C -4.9 °C -2.4 °C
Humidity: 83% 63% 70%
Wind Speed: 35.4km/h 1.6km/h 12.9km/h
Wind Gust: 56.3km/h - -
Wind- - West
Pressure: 1020.2 hPa 1012.8 hPa -
Precipitation: 0 mm    
Historical Graphs
 
 
Tabular Data for November 26, 2017
Time Temperature Dew Point Pressure Wind Wind Speed Wind Gust Humidity Rainfall Rate (Hourly)
00:04 2.2 °C -0.4 °C 1012.8 hPa WNW 11.3 km/h 19.3 km/h 83% 0.25 mm
00:09 2.1 °C -0.6 °C 1012.8 hPa WNW 9.7 km/h 19.3 km/h 83% 0.25 mm
00:14 1.9 °C -0.8 °C 1012.8 hPa WNW 9.7 km/h 19.3 km/h 82% 0.25 mm
00:19 1.9 °C -0.8 °C 1012.8 hPa WNW 9.7 km/h 22.5 km/h 82% 0 mm
00:24 2 °C -0.9 °C 1012.8 hPa WNW 9.7 km/h 22.5 km/h 81% 0 mm
00:29 2.1 °C -0.9 °C 1012.8 hPa WNW 9.7 km/h 19.3 km/h 81% 0 mm
00:39 2 °C -1.1 °C 1012.8 hPa West 12.9 km/h 16.1 km/h 80% 0 mm
00:44 1.9 °C -1.3 °C 1012.8 hPa West 14.5 km/h 29 km/h 79% 0 mm
00:49 2 °C -1.3 °C 1013.1 hPa West 11.3 km/h 22.5 km/h 79% 0 mm
00:54 2 °C -1.3 °C 1013.1 hPa NW 16.1 km/h 25.7 km/h 79% 0 mm
00:59 2 °C -1.4 °C 1013.1 hPa WNW 12.9 km/h 27.4 km/h 78% 0 mm
01:05 1.9 °C -1.5 °C 1013.1 hPa WNW 11.3 km/h 27.4 km/h 78% 0 mm
01:10 1.9 °C -1.6 °C 1013.1 hPa WNW 11.3 km/h 25.7 km/h 78% 0 mm
01:15 1.8 °C -1.6 °C 1013.1 hPa WNW 12.9 km/h 25.7 km/h 78% 0 mm
01:20 1.8 °C -1.8 °C 1013.4 hPa West 12.9 km/h 25.7 km/h 77% 0 mm
01:25 1.8 °C -1.8 °C 1013.4 hPa West 16.1 km/h 32.2 km/h 77% 0 mm
01:30 1.7 °C -2.3 °C 1013.8 hPa West 14.5 km/h 30.6 km/h 75% 0 mm
01:35 1.5 °C -2.6 °C 1014.1 hPa West 4.8 km/h 22.5 km/h 74% 0 mm
01:40 1.4 °C -2.7 °C 1014.1 hPa WNW 11.3 km/h 20.9 km/h 74% 0 mm
01:45 1.3 °C -2.8 °C 1014.1 hPa West 12.9 km/h 19.3 km/h 74% 0 mm
01:50 1.1 °C -3 °C 1014.1 hPa West 11.3 km/h 19.3 km/h 74% 0 mm
01:55 1.1 °C -3 °C 1014.1 hPa WNW 12.9 km/h 33.8 km/h 74% 0 mm
02:00 1 °C -3.3 °C 1014.4 hPa WNW 12.9 km/h 33.8 km/h 73% 0 mm
02:05 0.9 °C -3.3 °C 1014.4 hPa West 11.3 km/h 25.7 km/h 73% 0 mm
02:10 0.9 °C -3.3 °C 1014.4 hPa West 9.7 km/h 27.4 km/h 73% 0 mm
02:15 0.9 °C -3.3 °C 1014.4 hPa West 12.9 km/h 27.4 km/h 73% 0 mm
02:20 0.9 °C -3.4 °C 1014.4 hPa West 11.3 km/h 25.7 km/h 73% 0 mm
02:25 0.8 °C -3.4 °C 1014.4 hPa WNW 16.1 km/h 27.4 km/h 73% 0 mm
02:30 0.8 °C -3.5 °C 1014.4 hPa WSW 9.7 km/h 19.3 km/h 73% 0 mm
02:35 0.8 °C -3.5 °C 1014.8 hPa WNW 6.4 km/h 20.9 km/h 73% 0 mm
02:40 0.8 °C -3.3 °C 1014.8 hPa West 11.3 km/h 24.1 km/h 74% 0 mm
02:45 0.8 °C -3.3 °C 1014.8 hPa West 11.3 km/h 24.1 km/h 74% 0 mm
02:50 0.8 °C -3.3 °C 1014.8 hPa West 9.7 km/h 24.1 km/h 74% 0 mm
02:55 0.8 °C -3.3 °C 1015.1 hPa West 9.7 km/h 22.5 km/h 74% 0 mm
03:00 0.7 °C -3.6 °C 1014.8 hPa West 11.3 km/h 22.5 km/h 73% 0 mm
03:05 0.7 °C -3.4 °C 1014.8 hPa WSW 12.9 km/h 20.9 km/h 74% 0 mm
03:10 0.7 °C -3.6 °C 1014.8 hPa West 6.4 km/h 19.3 km/h 73% 0 mm
03:15 0.7 °C -3.4 °C 1015.1 hPa West 8 km/h 17.7 km/h 74% 0 mm
03:20 0.7 °C -3.4 °C 1015.1 hPa West 11.3 km/h 25.7 km/h 74% 0 mm
03:30 0.8 °C -3.3 °C 1015.5 hPa SW 8 km/h 24.1 km/h 74% 0 mm
03:35 0.8 °C -3.3 °C 1015.5 hPa WSW 16.1 km/h 24.1 km/h 74% 0 mm
03:40 0.8 °C -3.3 °C 1015.8 hPa West 12.9 km/h 20.9 km/h 74% 0 mm
03:45 0.8 °C -3.5 °C 1015.8 hPa West 12.9 km/h 24.1 km/h 73% 0 mm
03:50 0.7 °C -3.4 °C 1015.8 hPa West 8 km/h 19.3 km/h 74% 0 mm
03:55 0.7 °C -3.4 °C 1015.8 hPa West 9.7 km/h 29 km/h 74% 0 mm
04:00 0.8 °C -3.3 °C 1015.8 hPa West 11.3 km/h 29 km/h 74% 0 mm
04:05 0.7 °C -3.4 °C 1016.1 hPa WNW 11.3 km/h 24.1 km/h 74% 0 mm
04:10 0.7 °C -3.4 °C 1016.1 hPa West 9.7 km/h 25.7 km/h 74% 0 mm
04:15 0.7 °C -3.6 °C 1016.1 hPa West 11.3 km/h 25.7 km/h 73% 0 mm
04:20 0.7 °C -3.6 °C 1016.1 hPa West 12.9 km/h 20.9 km/h 73% 0 mm
04:25 0.7 °C -3.6 °C 1016.1 hPa West 16.1 km/h 22.5 km/h 73% 0 mm
04:30 0.7 °C -3.6 °C 1016.1 hPa WSW 4.8 km/h 22.5 km/h 73% 0 mm
04:35 0.7 °C -3.6 °C 1016.1 hPa SSW 4.8 km/h 20.9 km/h 73% 0 mm
04:40 0.7 °C -3.6 °C 1016.1 hPa West 6.4 km/h 24.1 km/h 73% 0 mm
04:45 0.7 °C -3.6 °C 1016.5 hPa West 9.7 km/h 27.4 km/h 73% 0 mm
04:50 0.7 °C -3.6 °C 1016.5 hPa West 6.4 km/h 17.7 km/h 73% 0 mm
04:55 0.7 °C -3.6 °C 1016.5 hPa West 9.7 km/h 22.5 km/h 73% 0 mm
05:00 0.7 °C -3.6 °C 1016.8 hPa West 9.7 km/h 24.1 km/h 73% 0 mm
05:05 0.7 °C -3.4 °C 1016.8 hPa West 9.7 km/h 24.1 km/h 74% 0 mm
05:10 0.7 °C -3.4 °C 1016.8 hPa West 9.7 km/h 22.5 km/h 74% 0 mm
05:15 0.6 °C -3.5 °C 1017.2 hPa West 11.3 km/h 20.9 km/h 74% 0 mm
05:20 0.6 °C -3.5 °C 1017.2 hPa West 11.3 km/h 20.9 km/h 74% 0 mm
05:25 0.7 °C -3.4 °C 1017.2 hPa West 11.3 km/h 19.3 km/h 74% 0 mm
05:30 0.7 °C -3.4 °C 1017.2 hPa West 8 km/h 24.1 km/h 74% 0 mm
05:35 0.7 °C -3.4 °C 1017.2 hPa West 11.3 km/h 16.1 km/h 74% 0 mm
05:40 0.6 °C -3.5 °C 1017.2 hPa WSW 9.7 km/h 16.1 km/h 74% 0 mm
05:45 0.6 °C -3.7 °C 1017.5 hPa NNW 6.4 km/h 19.3 km/h 73% 0 mm
05:50 0.6 °C -3.5 °C 1017.5 hPa West 6.4 km/h 17.7 km/h 74% 0 mm
05:55 0.6 °C -3.5 °C 1017.5 hPa WNW 11.3 km/h 14.5 km/h 74% 0 mm
06:00 0.6 °C -3.5 °C 1017.5 hPa West 8 km/h 19.3 km/h 74% 0 mm
06:05 0.7 °C -3.6 °C 1017.8 hPa West 9.7 km/h 19.3 km/h 73% 0 mm
06:10 0.7 °C -3.6 °C 1017.5 hPa West 11.3 km/h 19.3 km/h 73% 0 mm
06:15 0.7 °C -3.6 °C 1017.5 hPa West 11.3 km/h 24.1 km/h 73% 0 mm
06:20 0.7 °C -3.6 °C 1017.5 hPa SW 14.5 km/h 19.3 km/h 73% 0 mm
06:25 0.7 °C -3.6 °C 1017.5 hPa West 16.1 km/h 20.9 km/h 73% 0 mm
06:29 0.7 °C -3.6 °C 1017.8 hPa WNW 9.7 km/h 22.5 km/h 73% 0 mm
06:35 0.7 °C -3.6 °C 1017.8 hPa WNW 6.4 km/h 11.3 km/h 73% 0 mm
06:40 0.7 °C -3.6 °C 1017.8 hPa West 6.4 km/h 14.5 km/h 73% 0 mm
06:45 0.7 °C -3.6 °C 1017.8 hPa West 4.8 km/h 12.9 km/h 73% 0 mm
06:50 0.7 °C -3.6 °C 1017.8 hPa West 12.9 km/h 16.1 km/h 73% 0 mm
07:00 0.8 °C -3.7 °C 1017.8 hPa West 8 km/h 17.7 km/h 72% 0 mm
07:05 0.7 °C -3.8 °C 1017.8 hPa West 8 km/h 17.7 km/h 72% 0 mm
07:10 0.8 °C -3.7 °C 1017.8 hPa West 8 km/h 17.7 km/h 72% 0 mm
07:15 0.8 °C -3.8 °C 1017.8 hPa West 9.7 km/h 19.3 km/h 71% 0 mm
07:20 0.8 °C -3.8 °C 1017.8 hPa West 9.7 km/h 19.3 km/h 71% 0 mm
07:25 0.8 °C -4 °C 1018.2 hPa West 9.7 km/h 19.3 km/h 70% 0 mm
07:30 0.8 °C -4 °C 1018.2 hPa West 19.3 km/h 19.3 km/h 70% 0 mm
07:34 0.8 °C -4 °C 1018.2 hPa West 6.4 km/h 22.5 km/h 70% 0 mm
07:40 0.9 °C -3.9 °C 1018.2 hPa WSW 4.8 km/h 14.5 km/h 70% 0 mm
07:45 0.8 °C -4 °C 1018.2 hPa WSW 11.3 km/h 20.9 km/h 70% 0 mm
07:50 0.8 °C -4.2 °C 1018.5 hPa WSW 3.2 km/h 17.7 km/h 69% 0 mm
07:55 0.8 °C -4.2 °C 1018.5 hPa SW 14.5 km/h 17.7 km/h 69% 0 mm
08:00 0.8 °C -4.2 °C 1018.5 hPa West 9.7 km/h 19.3 km/h 69% 0 mm
08:05 0.8 °C -4.2 °C 1018.8 hPa West 11.3 km/h 19.3 km/h 69% 0 mm
08:10 0.9 °C -4.3 °C 1018.8 hPa West 9.7 km/h 20.9 km/h 68% 0 mm
08:15 0.9 °C -4.3 °C 1018.8 hPa West 11.3 km/h 22.5 km/h 68% 0 mm
08:20 0.9 °C -4.3 °C 1018.8 hPa West 11.3 km/h 22.5 km/h 68% 0 mm
08:25 0.9 °C -4.3 °C 1018.8 hPa West 11.3 km/h 22.5 km/h 68% 0 mm
08:30 0.9 °C -4.3 °C 1018.8 hPa WNW 11.3 km/h 22.5 km/h 68% 0 mm
08:34 0.9 °C -4.5 °C 1018.8 hPa WSW 8 km/h 22.5 km/h 67% 0 mm
08:39 0.9 °C -4.5 °C 1018.8 hPa WNW 9.7 km/h 14.5 km/h 67% 0 mm
08:45 0.9 °C -4.5 °C 1018.8 hPa West 8 km/h 16.1 km/h 67% 0 mm
08:50 1 °C -4.4 °C 1018.8 hPa West 9.7 km/h 16.1 km/h 67% 0 mm
08:54 1 °C -4.4 °C 1018.8 hPa WNW 8 km/h 19.3 km/h 67% 0 mm
09:00 1 °C -4.7 °C 1018.8 hPa West 9.7 km/h 25.7 km/h 66% 0 mm
09:04 1 °C -4.7 °C 1018.8 hPa West 11.3 km/h 25.7 km/h 66% 0 mm
09:10 1 °C -4.4 °C 1018.8 hPa West 9.7 km/h 20.9 km/h 67% 0 mm
09:15 1.1 °C -4.4 °C 1019.2 hPa West 9.7 km/h 16.1 km/h 67% 0 mm
09:20 1.1 °C -4.4 °C 1019.2 hPa WSW 6.4 km/h 16.1 km/h 67% 0 mm
09:25 1.1 °C -4.6 °C 1019.2 hPa WNW 6.4 km/h 22.5 km/h 66% 0 mm
09:30 1.1 °C -4.6 °C 1019.2 hPa West 8 km/h 17.7 km/h 66% 0 mm
09:34 1.1 °C -4.3 °C 1019.5 hPa West 8 km/h 19.3 km/h 67% 0 mm
09:40 1.1 °C -4.6 °C 1019.5 hPa West 9.7 km/h 24.1 km/h 66% 0 mm
09:45 1 °C -4.7 °C 1019.9 hPa WSW 12.9 km/h 24.1 km/h 66% 0 mm
09:49 1 °C -4.4 °C 1019.9 hPa West 8 km/h 19.3 km/h 67% 0 mm
09:55 1 °C -4.4 °C 1019.9 hPa West 9.7 km/h 14.5 km/h 67% 0 mm
09:59 1.1 °C -4.4 °C 1019.9 hPa West 9.7 km/h 17.7 km/h 67% 0 mm
10:04 1 °C -4.7 °C 1019.9 hPa West 9.7 km/h 19.3 km/h 66% 0 mm
10:09 1 °C -4.7 °C 1019.9 hPa West 11.3 km/h 22.5 km/h 66% 0 mm
10:14 1.1 °C -4.6 °C 1019.9 hPa West 12.9 km/h 22.5 km/h 66% 0 mm
10:20 1.1 °C -4.6 °C 1020.2 hPa WNW 14.5 km/h 17.7 km/h 66% 0 mm
10:25 0.9 °C -4.9 °C 1020.2 hPa West 14.5 km/h 22.5 km/h 65% 0 mm
10:30 0.9 °C -4.8 °C 1020.2 hPa WNW 12.9 km/h 24.1 km/h 66% 0 mm
10:34 0.9 °C -4.9 °C 1020.2 hPa West 11.3 km/h 24.1 km/h 65% 0 mm
10:39 0.9 °C -4.9 °C 1020.2 hPa West 9.7 km/h 22.5 km/h 65% 0 mm
10:45 1.1 °C -4.8 °C 1019.9 hPa WNW 9.7 km/h 22.5 km/h 65% 0 mm
10:50 1 °C -4.8 °C 1019.9 hPa WNW 9.7 km/h 22.5 km/h 65% 0 mm
10:54 1.1 °C -4.6 °C 1019.9 hPa WNW 12.9 km/h 16.1 km/h 66% 0 mm
10:59 0.9 °C -4.7 °C 1019.9 hPa West 11.3 km/h 17.7 km/h 66% 0 mm
11:04 0.9 °C -4.7 °C 1019.9 hPa WNW 9.7 km/h 17.7 km/h 66% 0 mm
11:10 0.9 °C -4.7 °C 1019.5 hPa West 9.7 km/h 17.7 km/h 66% 0 mm
11:14 1.1 °C -4.6 °C 1019.2 hPa West 6.4 km/h 14.5 km/h 66% 0 mm
11:19 1.2 °C -4.3 °C 1019.2 hPa West 6.4 km/h 12.9 km/h 67% 0 mm
11:24 1.2 °C -4.2 °C 1018.8 hPa NW 4.8 km/h 14.5 km/h 67% 0 mm
11:30 1.3 °C -4.2 °C 1018.8 hPa WNW 9.7 km/h 14.5 km/h 67% 0 mm
11:35 1.2 °C -4.5 °C 1018.8 hPa WSW 8 km/h 16.1 km/h 66% 0 mm
11:39 1.2 °C -4.4 °C 1018.8 hPa West 8 km/h 17.7 km/h 66% 0 mm
11:44 1.3 °C -4.2 °C 1018.8 hPa West 8 km/h 17.7 km/h 67% 0 mm
11:49 1.3 °C -4.4 °C 1018.5 hPa West 8 km/h 16.1 km/h 66% 0 mm
11:55 1.3 °C -4.4 °C 1018.5 hPa West 9.7 km/h 17.7 km/h 66% 0 mm
11:59 1.3 °C -4.4 °C 1018.5 hPa West 9.7 km/h 14.5 km/h 66% 0 mm
12:05 1.4 °C -4.3 °C 1018.5 hPa WNW 4.8 km/h 19.3 km/h 66% 0 mm
12:09 1.4 °C -4.2 °C 1018.5 hPa WSW 8 km/h 19.3 km/h 66% 0 mm
12:15 1.8 °C -3.7 °C 1018.2 hPa NW 3.2 km/h 11.3 km/h 67% 0 mm
12:19 1.9 °C -3.8 °C 1018.2 hPa WNW 6.4 km/h 14.5 km/h 66% 0 mm
12:24 1.9 °C -3.8 °C 1018.2 hPa NNW 4.8 km/h 14.5 km/h 66% 0 mm
12:29 1.9 °C -3.8 °C 1017.8 hPa WNW 11.3 km/h 14.5 km/h 66% 0 mm
12:35 1.8 °C -3.8 °C 1018.2 hPa WNW 8 km/h 14.5 km/h 66% 0 mm
12:39 1.8 °C -3.8 °C 1018.2 hPa West 8 km/h 17.7 km/h 66% 0 mm
12:44 1.7 °C -3.8 °C 1017.8 hPa West 8 km/h 17.7 km/h 67% 0 mm
12:50 1.7 °C -3.8 °C 1017.8 hPa West 9.7 km/h 19.3 km/h 67% 0 mm
12:54 1.6 °C -3.9 °C 1017.8 hPa West 9.7 km/h 19.3 km/h 67% 0 mm
13:00 1.6 °C -3.7 °C 1017.5 hPa West 1.6 km/h 17.7 km/h 68% 0 mm
13:05 1.6 °C -3.7 °C 1017.5 hPa West 8 km/h 17.7 km/h 68% 0 mm
13:09 1.6 °C -3.5 °C 1017.2 hPa West 4.8 km/h 14.5 km/h 69% 0 mm
13:14 1.7 °C -3.4 °C 1017.2 hPa WSW 8 km/h 17.7 km/h 69% 0 mm
13:19 1.7 °C -3.4 °C 1017.2 hPa SW 16.1 km/h 16.1 km/h 69% 0 mm
13:24 1.6 °C -3.4 °C 1016.8 hPa WSW 11.3 km/h 17.7 km/h 69% 0 mm
13:29 1.7 °C -3.2 °C 1016.8 hPa WSW 4.8 km/h 16.1 km/h 70% 0 mm
13:35 1.9 °C -3 °C 1016.8 hPa WNW 4.8 km/h 12.9 km/h 70% 0 mm
13:40 2.1 °C -3.1 °C 1016.8 hPa West 9.7 km/h 19.3 km/h 69% 0 mm
13:44 2.1 °C -3.1 °C 1016.5 hPa West 8 km/h 22.5 km/h 69% 0 mm
13:49 2.1 °C -2.8 °C 1016.5 hPa WSW 8 km/h 22.5 km/h 70% 0 mm
13:54 2.2 °C -2.7 °C 1016.5 hPa WSW 9.7 km/h 20.9 km/h 70% 0 mm
14:00 2.3 °C -2.6 °C 1016.5 hPa WSW 11.3 km/h 25.7 km/h 70% 0 mm
14:05 2.4 °C -2.7 °C 1016.1 hPa WSW 12.9 km/h 27.4 km/h 69% 0 mm
14:09 2.6 °C -2.8 °C 1016.1 hPa WSW 12.9 km/h 32.2 km/h 68% 0 mm
14:14 2.6 °C -2.9 °C 1016.1 hPa WSW 14.5 km/h 25.7 km/h 67% 0 mm
14:19 2.6 °C -3.2 °C 1016.1 hPa WSW 12.9 km/h 30.6 km/h 66% 0 mm
14:24 2.4 °C -3.3 °C 1016.1 hPa West 27.4 km/h 32.2 km/h 66% 0 mm
14:29 2.4 °C -3.1 °C 1015.8 hPa SW 16.1 km/h 29 km/h 67% 0 mm
14:34 2.3 °C -3.2 °C 1015.8 hPa West 17.7 km/h 24.1 km/h 67% 0 mm
14:40 2.3 °C -3 °C 1015.8 hPa West 22.5 km/h 32.2 km/h 68% 0 mm
14:44 2.3 °C -3.2 °C 1015.8 hPa WSW 16.1 km/h 32.2 km/h 67% 0 mm
14:49 2.3 °C -3 °C 1015.8 hPa WSW 14.5 km/h 30.6 km/h 68% 0 mm
14:54 2.3 °C -3 °C 1015.5 hPa WSW 12.9 km/h 24.1 km/h 68% 0 mm
14:59 2.4 °C -2.7 °C 1015.5 hPa WSW 11.3 km/h 20.9 km/h 69% 0 mm
15:05 2.5 °C -2.6 °C 1015.5 hPa WSW 14.5 km/h 33.8 km/h 69% 0 mm
15:10 2.6 °C -2.3 °C 1015.5 hPa WSW 16.1 km/h 33.8 km/h 70% 0 mm
15:14 2.7 °C -2.3 °C 1015.5 hPa West 6.4 km/h 25.7 km/h 70% 0 mm
15:19 2.7 °C -2.2 °C 1015.5 hPa West 17.7 km/h 32.2 km/h 70% 0 mm
15:24 2.8 °C -1.9 °C 1015.5 hPa WSW 16.1 km/h 25.7 km/h 71% 0 mm
15:29 2.8 °C -1.9 °C 1015.5 hPa West 17.7 km/h 29 km/h 71% 0 mm
15:34 2.8 °C -1.9 °C 1015.5 hPa SW 11.3 km/h 24.1 km/h 71% 0 mm
15:39 2.8 °C -1.9 °C 1015.1 hPa West 14.5 km/h 29 km/h 71% 0 mm
15:44 2.8 °C -2.1 °C 1015.1 hPa SW 11.3 km/h 32.2 km/h 70% 0 mm
15:49 2.9 °C -2.1 °C 1015.1 hPa WSW 16.1 km/h 32.2 km/h 70% 0 mm
15:54 3 °C -1.9 °C 1014.8 hPa WSW 14.5 km/h 37 km/h 70% 0 mm
15:59 3.2 °C -1.8 °C 1014.8 hPa WSW 14.5 km/h 37 km/h 70% 0 mm
16:04 3.3 °C -1.7 °C 1014.8 hPa WSW 14.5 km/h 38.6 km/h 70% 0 mm
16:10 3.4 °C -1.5 °C 1014.8 hPa WSW 16.1 km/h 38.6 km/h 70% 0 mm
16:14 3.6 °C -1.2 °C 1014.8 hPa WSW 9.7 km/h 29 km/h 71% 0 mm
16:19 3.6 °C -1.4 °C 1014.8 hPa WSW 14.5 km/h 29 km/h 70% 0 mm
16:25 3.7 °C -1.7 °C 1014.8 hPa WSW 16.1 km/h 35.4 km/h 68% 0 mm
16:29 3.7 °C -1.7 °C 1014.8 hPa WSW 24.1 km/h 32.2 km/h 68% 0 mm
16:34 3.7 °C -1.7 °C 1014.8 hPa WSW 9.7 km/h 37 km/h 68% 0 mm
16:39 3.7 °C -1.9 °C 1014.8 hPa WSW 16.1 km/h 41.8 km/h 67% 0 mm
16:44 3.6 °C -1.7 °C 1014.8 hPa SW 19.3 km/h 38.6 km/h 68% 0 mm
16:49 3.6 °C -1.7 °C 1014.8 hPa West 20.9 km/h 46.7 km/h 68% 0 mm
16:54 3.6 °C -1.7 °C 1014.8 hPa WSW 20.9 km/h 46.7 km/h 68% 0 mm
16:59 3.6 °C -1.8 °C 1014.8 hPa WSW 22.5 km/h 41.8 km/h 68% 0 mm
17:04 3.6 °C -1.6 °C 1014.8 hPa WSW 20.9 km/h 41.8 km/h 69% 0 mm
17:09 3.5 °C -1.7 °C 1014.8 hPa West 25.7 km/h 35.4 km/h 69% 0 mm
17:14 3.4 °C -1.7 °C 1014.8 hPa West 17.7 km/h 41.8 km/h 69% 0 mm
17:19 3.4 °C -1.8 °C 1014.8 hPa WSW 19.3 km/h 41.8 km/h 69% 0 mm
17:24 3.4 °C -1.8 °C 1014.8 hPa West 17.7 km/h 29 km/h 69% 0 mm
17:29 3.4 °C -1.7 °C 1014.8 hPa South 22.5 km/h 33.8 km/h 69% 0 mm
17:34 3.5 °C -1.7 °C 1014.8 hPa West 12.9 km/h 35.4 km/h 69% 0 mm
17:39 3.6 °C -1.3 °C 1014.4 hPa West 25.7 km/h 43.5 km/h 70% 0 mm
17:44 3.7 °C -1.5 °C 1014.4 hPa WSW 22.5 km/h 37 km/h 69% 0 mm
17:49 3.7 °C -1.4 °C 1014.4 hPa WSW 17.7 km/h 37 km/h 69% 0 mm
17:54 3.8 °C -1.2 °C 1014.4 hPa WSW 16.1 km/h 30.6 km/h 70% 0 mm
17:59 3.8 °C -1.3 °C 1014.4 hPa WSW 16.1 km/h 33.8 km/h 69% 0 mm
18:04 3.9 °C -1.3 °C 1014.4 hPa WSW 17.7 km/h 37 km/h 69% 0 mm
18:09 3.9 °C -1.5 °C 1014.1 hPa WSW 8 km/h 35.4 km/h 68% 0 mm
18:14 3.9 °C -1.2 °C 1014.1 hPa SW 20.9 km/h 32.2 km/h 69% 0 mm
18:19 4.1 °C -0.9 °C 1014.1 hPa WSW 17.7 km/h 33.8 km/h 70% 0 mm
18:24 4.1 °C -1.1 °C 1014.1 hPa WNW 20.9 km/h 35.4 km/h 69% 0 mm
18:29 4.1 °C -1.3 °C 1014.1 hPa SSW 22.5 km/h 43.5 km/h 68% 0 mm
18:34 4.2 °C -1.2 °C 1013.8 hPa West 16.1 km/h 33.8 km/h 68% 0 mm
18:39 4.2 °C -1 °C 1013.8 hPa WSW 30.6 km/h 30.6 km/h 69% 0 mm
18:44 4.2 °C -0.9 °C 1014.1 hPa SW 16.1 km/h 30.6 km/h 69% 0 mm
18:49 4.3 °C -0.7 °C 1013.8 hPa WSW 19.3 km/h 41.8 km/h 70% 0 mm
18:54 4.3 °C -0.7 °C 1013.4 hPa WSW 20.9 km/h 41.8 km/h 70% 0 mm
19:04 4.4 °C -0.4 °C 1013.4 hPa WSW 19.3 km/h 37 km/h 71% 0 mm
19:09 4.4 °C -0.3 °C 1013.4 hPa WSW 19.3 km/h 48.3 km/h 71% 0 mm
19:14 4.4 °C -0.3 °C 1013.4 hPa WSW 25.7 km/h 32.2 km/h 71% 0 mm
19:19 4.5 °C -0.3 °C 1013.4 hPa WSW 17.7 km/h 33.8 km/h 71% 0 mm
19:24 4.6 °C -0.2 °C 1013.4 hPa WSW 17.7 km/h 33.8 km/h 71% 0 mm
19:29 4.7 °C -0.2 °C 1013.4 hPa SW 27.4 km/h 40.2 km/h 71% 0 mm
19:34 4.8 °C -0.1 °C 1013.4 hPa WNW 9.7 km/h 56.3 km/h 71% 0 mm
19:39 4.9 °C -0.1 °C 1013.1 hPa North 17.7 km/h 45.1 km/h 70% 0 mm
19:44 4.9 °C 0.1 °C 1013.1 hPa SW 35.4 km/h 37 km/h 71% 0 mm
19:49 5.1 °C 0.2 °C 1013.1 hPa WSW 20.9 km/h 43.5 km/h 71% 0 mm
19:54 5.2 °C 0.1 °C 1013.4 hPa WSW 22.5 km/h 43.5 km/h 70% 0 mm
19:59 5.3 °C 0.4 °C 1013.4 hPa WNW 8 km/h 32.2 km/h 71% 0 mm
20:04 5.4 °C 0.6 °C 1013.4 hPa SW 12.9 km/h 38.6 km/h 71% 0 mm
20:09 5.5 °C 0.7 °C 1013.8 hPa West 19.3 km/h 38.6 km/h 71% 0 mm
20:14 5.6 °C 0.7 °C 1013.4 hPa WSW 19.3 km/h 45.1 km/h 71% 0 mm
20:19 5.7 °C 0.8 °C 1013.4 hPa WSW 19.3 km/h 45.1 km/h 71% 0 mm
20:24 5.7 °C 0.7 °C 1013.1 hPa WSW 20.9 km/h 37 km/h 70% 0 mm
20:29 5.8 °C 0.8 °C 1013.4 hPa WSW 25.7 km/h 41.8 km/h 70% 0 mm
20:34 5.8 °C 1 °C 1013.4 hPa SW 17.7 km/h 37 km/h 71% 0 mm
20:39 5.9 °C 1.1 °C 1013.1 hPa West 30.6 km/h 33.8 km/h 71% 0 mm
20:44 5.9 °C 1.1 °C 1013.4 hPa West 12.9 km/h 35.4 km/h 71% 0 mm
20:49 5.9 °C 1.1 °C 1013.4 hPa WSW 17.7 km/h 35.4 km/h 71% 0 mm
20:54 5.9 °C 1.1 °C 1013.4 hPa WNW 16.1 km/h 41.8 km/h 71% 0 mm
20:59 6 °C 0.9 °C 1013.4 hPa WSW 19.3 km/h 38.6 km/h 70% 0 mm
21:04 6.1 °C 1 °C 1013.4 hPa WSW 8 km/h 33.8 km/h 70% 0 mm
21:09 6.1 °C 1.2 °C 1013.4 hPa WSW 12.9 km/h 29 km/h 71% 0 mm
21:14 5.9 °C 1.3 °C 1013.4 hPa West 19.3 km/h 29 km/h 72% 0 mm
21:19 5.8 °C 1.6 °C 1013.4 hPa WSW 14.5 km/h 29 km/h 74% 0 mm
21:24 5.8 °C 1.7 °C 1013.4 hPa WSW 12.9 km/h 27.4 km/h 75% 0 mm
21:29 5.8 °C 1.7 °C 1013.1 hPa WSW 14.5 km/h 29 km/h 75% 0 mm
21:34 5.9 °C 1.4 °C 1013.4 hPa WSW 17.7 km/h 33.8 km/h 73% 0 mm
21:39 6.1 °C 1.4 °C 1013.4 hPa West 16.1 km/h 33.8 km/h 72% 0 mm
21:44 6.2 °C 1.3 °C 1013.4 hPa SW 17.7 km/h 30.6 km/h 71% 0 mm
21:49 6.2 °C 1.3 °C 1013.4 hPa WSW 24.1 km/h 25.7 km/h 71% 0 mm
21:54 6.2 °C 1.2 °C 1013.4 hPa WNW 17.7 km/h 29 km/h 70% 0 mm
21:59 6.2 °C 1.2 °C 1013.4 hPa WSW 22.5 km/h 30.6 km/h 70% 0 mm
22:04 6.3 °C 1.2 °C 1013.4 hPa WNW 11.3 km/h 32.2 km/h 70% 0 mm
22:09 6.2 °C 1.2 °C 1013.4 hPa SW 16.1 km/h 22.5 km/h 70% 0 mm
22:14 6.2 °C 0.9 °C 1013.4 hPa NW 16.1 km/h 29 km/h 69% 0 mm
22:19 6.2 °C 0.7 °C 1013.4 hPa West 14.5 km/h 30.6 km/h 68% 0 mm
22:24 6.2 °C 0.6 °C 1013.4 hPa West 14.5 km/h 32.2 km/h 67% 0 mm
22:29 6.2 °C 0.6 °C 1013.4 hPa West 12.9 km/h 32.2 km/h 67% 0 mm
22:39 6.2 °C 0.1 °C 1013.8 hPa West 16.1 km/h 32.2 km/h 65% 0 mm
22:44 6.1 °C 0 °C 1013.8 hPa West 16.1 km/h 32.2 km/h 65% 0 mm
22:49 6.1 °C -0.2 °C 1013.8 hPa WSW 11.3 km/h 27.4 km/h 64% 0 mm
22:54 6 °C -0.3 °C 1013.8 hPa WNW 16.1 km/h 25.7 km/h 64% 0 mm
22:59 6 °C -0.5 °C 1013.8 hPa West 14.5 km/h 35.4 km/h 63% 0 mm
23:09 5.8 °C -0.7 °C 1013.4 hPa SW 20.9 km/h 37 km/h 63% 0 mm
23:14 5.7 °C -0.8 °C 1013.8 hPa West 11.3 km/h 29 km/h 63% 0 mm
23:19 5.6 °C -0.9 °C 1013.4 hPa WNW 20.9 km/h 20.9 km/h 63% 0 mm
23:24 5.4 °C -1.1 °C 1013.8 hPa West 11.3 km/h 22.5 km/h 63% 0 mm
23:29 5.3 °C -1.2 °C 1013.8 hPa West 12.9 km/h 22.5 km/h 63% 0 mm
23:34 5.2 °C -1.3 °C 1013.8 hPa West 11.3 km/h 20.9 km/h 63% 0 mm
23:39 5 °C -1.3 °C 1013.8 hPa West 11.3 km/h 29 km/h 64% 0 mm
23:44 4.9 °C -1.3 °C 1013.8 hPa West 16.1 km/h 22.5 km/h 64% 0 mm
23:49 4.8 °C -1.4 °C 1013.4 hPa West 9.7 km/h 20.9 km/h 64% 0 mm
23:54 4.7 °C -1.6 °C 1013.4 hPa West 9.7 km/h 22.5 km/h 64% 0 mm
23:59 4.6 °C -1.7 °C 1013.4 hPa WSW 12.9 km/h 20.9 km/h 64% 0 mm
Buffalo, New York, USA
Compliments of Weather Underground - 2.5 mb